createdAt,value
2022-10-10T00:00:18.207Z,14.98
2022-10-10T00:02:45.523Z,16.45
2022-10-10T00:05:12.840Z,15.38
2022-10-10T00:07:40.152Z,16.83
2022-10-10T00:10:07.941Z,15.07
2022-10-10T00:12:35.251Z,15.00
2022-10-10T00:15:02.574Z,14.63
2022-10-10T00:17:29.830Z,15.85
2022-10-10T00:19:57.106Z,15.27
2022-10-10T00:22:24.377Z,15.73
2022-10-10T00:24:51.787Z,14.50
2022-10-10T00:27:19.090Z,15.88
2022-10-10T00:29:46.538Z,15.30
2022-10-10T00:32:13.805Z,16.50
2022-10-10T00:34:41.115Z,17.70
2022-10-10T00:37:08.408Z,17.70
2022-10-10T00:39:35.683Z,17.83
2022-10-10T00:42:03.005Z,18.92
2022-10-10T00:44:30.282Z,18.55
2022-10-10T00:46:57.632Z,18.65
2022-10-10T00:49:26.299Z,18.27
2022-10-10T00:51:55.190Z,17.33
2022-10-10T00:54:22.689Z,18.27
2022-10-10T00:56:52.519Z,17.73
2022-10-10T00:59:19.921Z,18.95
2022-10-10T01:01:48.080Z,17.85
2022-10-10T01:04:40.535Z,17.88
2022-10-10T01:07:21.871Z,16.95
2022-10-10T01:09:49.695Z,18.15
2022-10-10T01:12:32.395Z,17.73
2022-10-10T01:15:18.585Z,18.10
2022-10-10T01:18:03.338Z,16.08
2022-10-10T01:23:27.454Z,15.75
2022-10-10T01:26:30.175Z,16.90
2022-10-10T01:29:17.895Z,15.40
2022-10-10T01:31:46.443Z,15.10
2022-10-10T01:34:20.194Z,15.30
2022-10-10T01:36:53.275Z,15.13
2022-10-10T01:39:52.500Z,15.88
2022-10-10T01:42:33.357Z,15.75
2022-10-10T01:45:00.634Z,15.18
2022-10-10T01:47:27.978Z,15.88
2022-10-10T01:49:57.158Z,15.98
2022-10-10T01:52:49.913Z,15.68
2022-10-10T01:55:51.259Z,15.20
2022-10-10T01:58:38.807Z,16.30
2022-10-10T02:01:15.330Z,15.60
2022-10-10T02:03:45.633Z,15.70
2022-10-10T02:06:52.238Z,16.30
2022-10-10T02:09:28.830Z,16.23
2022-10-10T02:11:56.912Z,16.60
2022-10-10T02:14:26.446Z,17.05
2022-10-10T02:16:54.900Z,17.35
2022-10-10T02:19:22.733Z,16.27
2022-10-10T02:21:51.472Z,15.02
2022-10-10T02:24:19.636Z,14.50
2022-10-10T02:26:48.646Z,14.63
2022-10-10T02:29:16.796Z,13.70
2022-10-10T02:31:56.550Z,13.98
2022-10-10T02:34:26.936Z,14.48
2022-10-10T02:36:56.580Z,13.73
2022-10-10T02:39:28.087Z,13.60
2022-10-10T02:41:55.743Z,14.55
2022-10-10T02:44:23.105Z,14.25
2022-10-10T02:46:50.388Z,12.68
2022-10-10T02:49:24.192Z,14.32
2022-10-10T02:51:51.494Z,14.10
2022-10-10T02:54:18.819Z,14.27
2022-10-10T02:56:46.187Z,13.98
2022-10-10T02:59:13.471Z,13.82
2022-10-10T03:01:40.794Z,14.05
2022-10-10T03:04:08.074Z,14.20
2022-10-10T03:06:35.357Z,14.25
2022-10-10T03:09:03.195Z,14.75
2022-10-10T03:11:30.484Z,14.27
2022-10-10T03:13:57.765Z,14.73
2022-10-10T03:16:25.610Z,14.65
2022-10-10T03:18:53.119Z,14.82
2022-10-10T03:21:23.257Z,13.98
2022-10-10T03:23:50.594Z,14.07
2022-10-10T03:26:17.911Z,13.00
2022-10-10T03:28:45.196Z,12.15
2022-10-10T03:31:12.465Z,11.02
2022-10-10T03:33:40.173Z,11.98
2022-10-10T03:36:07.533Z,13.13
2022-10-10T03:38:34.915Z,11.93
2022-10-10T03:41:02.188Z,12.38
2022-10-10T03:43:29.478Z,12.20
2022-10-10T03:45:56.741Z,12.30
2022-10-10T03:48:24.019Z,13.05
2022-10-10T03:50:51.339Z,13.40
2022-10-10T03:53:18.612Z,14.10
2022-10-10T03:55:45.890Z,14.13
2022-10-10T03:58:13.158Z,16.10
2022-10-10T04:00:40.462Z,14.13
2022-10-10T04:03:08.212Z,13.85
2022-10-10T04:05:39.179Z,12.98
2022-10-10T04:08:06.626Z,13.85
2022-10-10T04:10:33.944Z,14.77
2022-10-10T04:13:01.268Z,14.90
2022-10-10T04:15:28.648Z,14.90
2022-10-10T04:17:56.029Z,14.02
2022-10-10T04:20:23.378Z,14.15
2022-10-10T04:22:50.943Z,13.80
2022-10-10T04:25:18.584Z,14.23
2022-10-10T04:27:45.862Z,14.35
2022-10-10T04:30:13.499Z,14.45
2022-10-10T04:32:41.195Z,14.95
2022-10-10T04:35:08.751Z,14.10
2022-10-10T04:37:35.997Z,13.43
2022-10-10T04:40:04.340Z,13.20
2022-10-10T04:42:31.878Z,13.60
2022-10-10T04:44:59.327Z,12.90
2022-10-10T04:47:26.627Z,12.63
2022-10-10T04:49:53.905Z,12.50
2022-10-10T04:52:21.280Z,13.07
2022-10-10T04:54:48.655Z,12.63
2022-10-10T04:57:15.955Z,12.60
2022-10-10T04:59:43.382Z,13.20
2022-10-10T05:02:10.638Z,11.65
2022-10-10T05:04:37.937Z,12.38
2022-10-10T05:07:05.229Z,12.65
2022-10-10T05:09:33.791Z,12.27
2022-10-10T05:12:01.439Z,11.90
2022-10-10T05:14:29.172Z,11.63
2022-10-10T05:16:57.118Z,11.63
2022-10-10T05:19:24.544Z,11.45
2022-10-10T05:21:52.052Z,11.73
2022-10-10T05:24:20.679Z,11.32
2022-10-10T05:26:48.067Z,10.73
2022-10-10T05:29:15.323Z,9.93
2022-10-10T05:31:42.655Z,10.10
2022-10-10T05:34:13.553Z,9.48
2022-10-10T05:36:41.407Z,9.32
2022-10-10T05:39:09.043Z,10.10
2022-10-10T05:41:36.366Z,9.40
2022-10-10T05:44:03.718Z,10.23
2022-10-10T05:46:31.089Z,9.80
2022-10-10T05:48:58.382Z,9.15
2022-10-10T05:51:26.483Z,10.10
2022-10-10T05:53:53.749Z,10.02
2022-10-10T05:56:21.044Z,10.43
2022-10-10T05:58:49.357Z,10.45
2022-10-10T06:01:16.707Z,9.70
2022-10-10T06:03:44.052Z,9.27
2022-10-10T06:06:11.357Z,9.35
2022-10-10T06:08:38.652Z,8.57
2022-10-10T06:11:11.072Z,8.52
2022-10-10T06:13:38.786Z,9.18
2022-10-10T06:16:06.301Z,9.38
2022-10-10T06:18:33.582Z,8.80
2022-10-10T06:21:05.271Z,8.07
2022-10-10T06:23:32.776Z,6.90
2022-10-10T06:26:00.200Z,6.80
2022-10-10T06:28:27.643Z,7.18
2022-10-10T06:30:54.972Z,7.05
2022-10-10T06:33:22.283Z,7.78
2022-10-10T06:35:49.766Z,8.00
2022-10-10T06:38:17.142Z,7.40
2022-10-10T06:40:44.601Z,8.63
2022-10-10T06:43:12.773Z,7.05
2022-10-10T06:45:41.539Z,6.18
2022-10-10T06:48:09.285Z,5.65
2022-10-10T06:50:36.546Z,5.35
2022-10-10T06:53:03.996Z,4.70
2022-10-10T06:55:31.512Z,4.38
2022-10-10T06:57:58.825Z,4.93
2022-10-10T07:00:26.226Z,4.70
2022-10-10T07:02:53.877Z,4.90
2022-10-10T07:05:21.339Z,4.43
2022-10-10T07:07:48.591Z,4.43
2022-10-10T07:10:16.375Z,4.30
2022-10-10T07:12:45.197Z,4.57
2022-10-10T07:15:12.947Z,4.32
2022-10-10T07:17:40.287Z,4.78
2022-10-10T07:20:07.965Z,4.80
2022-10-10T07:22:35.308Z,4.90
2022-10-10T07:25:02.604Z,5.00
2022-10-10T07:27:30.014Z,5.13
2022-10-10T07:29:57.534Z,4.65
2022-10-10T07:32:24.949Z,4.50
2022-10-10T07:34:52.339Z,4.80
2022-10-10T07:37:19.607Z,4.18
2022-10-10T07:39:46.875Z,4.22
2022-10-10T07:42:14.257Z,4.18
2022-10-10T07:44:41.506Z,4.20
2022-10-10T07:47:08.858Z,4.60
2022-10-10T07:49:36.197Z,4.22
2022-10-10T07:52:04.304Z,4.47
2022-10-10T07:54:31.658Z,4.35
2022-10-10T07:56:59.044Z,4.25
2022-10-10T07:59:26.463Z,4.55
2022-10-10T08:01:53.846Z,4.22
2022-10-10T08:04:21.196Z,4.88
2022-10-10T08:06:48.790Z,4.30
2022-10-10T08:09:16.109Z,4.00
2022-10-10T08:11:43.519Z,4.00
2022-10-10T08:14:10.946Z,4.35
2022-10-10T08:16:38.217Z,4.63
2022-10-10T08:19:05.534Z,4.10
2022-10-10T08:21:32.994Z,3.83
2022-10-10T08:24:00.300Z,3.90
2022-10-10T08:26:27.614Z,4.65
2022-10-10T08:28:55.132Z,4.60
2022-10-10T08:31:22.746Z,5.10
2022-10-10T08:33:50.603Z,6.68
2022-10-10T08:36:24.845Z,5.38
2022-10-10T08:38:56.249Z,4.55
2022-10-10T08:41:52.136Z,3.78
2022-10-10T08:44:37.114Z,3.50
2022-10-10T08:47:10.592Z,3.58
2022-10-10T08:50:01.988Z,3.70
2022-10-10T08:52:32.599Z,4.43
2022-10-10T08:55:03.936Z,3.47
2022-10-10T08:57:33.696Z,3.45
2022-10-10T09:00:06.258Z,3.70
2022-10-10T09:02:56.334Z,6.68
2022-10-10T09:05:51.310Z,4.07
2022-10-10T09:08:26.766Z,4.35
2022-10-10T09:11:01.588Z,4.40
2022-10-10T09:13:36.881Z,4.63
2022-10-10T09:16:08.037Z,3.53
2022-10-10T09:18:54.424Z,2.97
2022-10-10T09:21:26.342Z,3.30
2022-10-10T09:24:03.325Z,2.90
2022-10-10T09:26:58.240Z,2.88
2022-10-10T09:29:39.320Z,2.80
2022-10-10T09:32:34.650Z,2.50
2022-10-10T09:35:27.025Z,2.70
2022-10-10T09:37:57.996Z,2.55
2022-10-10T09:40:36.486Z,2.65
2022-10-10T09:43:18.050Z,3.10
2022-10-10T09:45:53.103Z,3.05
2022-10-10T09:48:22.364Z,2.30
2022-10-10T09:50:49.720Z,2.35
2022-10-10T09:53:17.251Z,2.83
2022-10-10T09:55:45.926Z,3.70
2022-10-10T09:58:18.030Z,3.67
2022-10-10T10:00:45.418Z,2.33
2022-10-10T10:03:17.593Z,8.55
2022-10-10T10:05:56.573Z,11.13
2022-10-10T10:08:28.959Z,2.90
2022-10-10T10:10:58.331Z,2.75
2022-10-10T10:13:36.427Z,2.55
2022-10-10T10:16:06.883Z,2.55
2022-10-10T10:18:41.503Z,2.67
2022-10-10T10:21:10.858Z,3.30
2022-10-10T10:23:55.814Z,2.78
2022-10-10T10:26:27.409Z,2.30
2022-10-10T10:28:58.075Z,2.30
2022-10-10T10:31:30.424Z,2.17
2022-10-10T10:34:00.572Z,2.17
2022-10-10T10:36:27.835Z,2.33
2022-10-10T10:39:06.760Z,2.22
2022-10-10T10:41:41.116Z,3.58
2022-10-10T10:46:51.453Z,2.58
2022-10-10T10:49:43.407Z,5.07
2022-10-10T10:52:18.953Z,2.92
2022-10-10T10:54:53.432Z,2.80
2022-10-10T11:00:41.215Z,3.05
2022-10-10T11:04:15.677Z,2.47
2022-10-10T11:06:27.587Z,2.30
2022-10-10T11:09:00.700Z,2.33
2022-10-10T11:11:46.872Z,2.03
2022-10-10T11:14:21.518Z,2.10
2022-10-10T11:17:16.482Z,2.63
2022-10-10T11:19:45.348Z,1.92
2022-10-10T11:22:18.045Z,2.20
2022-10-10T11:24:56.359Z,2.00
2022-10-10T11:27:36.428Z,2.40
2022-10-10T11:30:05.742Z,2.03
2022-10-10T11:33:06.444Z,1.95
2022-10-10T11:35:54.777Z,2.08
2022-10-10T11:39:02.991Z,1.92
2022-10-10T11:41:41.746Z,2.10
2022-10-10T11:44:21.938Z,1.92
2022-10-10T11:47:27.102Z,1.95
2022-10-10T11:50:11.413Z,2.00
2022-10-10T11:52:59.019Z,2.17
2022-10-10T11:55:29.139Z,1.88
2022-10-10T11:57:59.627Z,2.30
2022-10-10T12:00:26.932Z,2.00
2022-10-10T12:02:54.224Z,2.20
2022-10-10T12:05:26.201Z,2.08
2022-10-10T12:07:56.667Z,2.38
2022-10-10T12:10:27.792Z,2.10
2022-10-10T12:12:56.290Z,2.00
2022-10-10T12:15:28.855Z,2.03
2022-10-10T12:17:56.708Z,2.22
2022-10-10T12:20:27.134Z,2.20
2022-10-10T12:23:23.197Z,2.17
2022-10-10T12:25:50.589Z,2.10
2022-10-10T12:28:18.513Z,2.10
2022-10-10T12:30:58.255Z,1.95
2022-10-10T12:33:26.599Z,3.55
2022-10-10T12:35:54.074Z,2.13
2022-10-10T12:38:25.397Z,2.00
2022-10-10T12:41:15.643Z,2.47
2022-10-10T12:44:02.372Z,2.30
2022-10-10T12:46:38.224Z,2.00
2022-10-10T12:49:22.348Z,3.33
2022-10-10T12:52:12.261Z,2.42
2022-10-10T12:54:41.962Z,1.90
2022-10-10T12:57:17.772Z,1.92
2022-10-10T12:59:45.422Z,2.13
2022-10-10T13:02:19.083Z,2.33
2022-10-10T13:04:46.507Z,1.80
2022-10-10T13:07:17.254Z,2.03
2022-10-10T13:09:46.897Z,1.70
2022-10-10T13:12:28.132Z,2.03
2022-10-10T13:14:55.639Z,2.92
2022-10-10T13:17:31.879Z,1.90
2022-10-10T13:20:00.663Z,2.00
2022-10-10T13:22:32.067Z,2.00
2022-10-10T13:25:00.295Z,2.40
2022-10-10T13:27:28.812Z,2.63
2022-10-10T13:29:56.148Z,2.45
2022-10-10T13:32:28.365Z,3.17
2022-10-10T13:34:58.187Z,3.28
2022-10-10T13:37:25.568Z,3.35
2022-10-10T13:39:52.931Z,2.20
2022-10-10T13:42:36.395Z,2.33
2022-10-10T13:45:31.900Z,2.10
2022-10-10T13:48:02.248Z,2.17
2022-10-10T13:50:42.347Z,2.20
2022-10-10T13:53:42.188Z,2.47
2022-10-10T13:56:15.591Z,2.10
2022-10-10T13:59:00.934Z,2.38
2022-10-10T14:01:29.847Z,1.88
2022-10-10T14:04:05.517Z,2.22
2022-10-10T14:06:32.989Z,2.20
2022-10-10T14:09:16.171Z,2.00
2022-10-10T14:11:43.773Z,2.28
2022-10-10T14:14:17.060Z,2.47
2022-10-10T14:16:44.383Z,2.35
2022-10-10T14:19:19.256Z,2.17
2022-10-10T14:21:46.601Z,2.20
2022-10-10T14:24:16.020Z,2.20
2022-10-10T14:26:43.523Z,2.30
2022-10-10T14:29:15.537Z,2.42
2022-10-10T14:31:43.131Z,2.40
2022-10-10T14:34:11.111Z,1.90
2022-10-10T14:36:40.163Z,1.80
2022-10-10T14:39:07.481Z,2.45
2022-10-10T14:41:34.812Z,1.98
2022-10-10T14:44:02.108Z,2.00
2022-10-10T14:46:29.385Z,2.30
2022-10-10T14:48:56.703Z,2.22
2022-10-10T14:51:33.247Z,2.20
2022-10-10T14:54:13.522Z,2.08
2022-10-10T14:57:08.361Z,2.10
2022-10-10T14:59:49.308Z,2.30
2022-10-10T15:02:18.935Z,2.20
2022-10-10T15:04:46.418Z,2.30
2022-10-10T15:07:15.004Z,2.28
2022-10-10T15:12:34.987Z,2.60
2022-10-10T15:15:02.849Z,2.35
2022-10-10T15:17:33.640Z,2.50
2022-10-10T15:20:01.963Z,2.63
2022-10-10T15:22:30.407Z,2.65
2022-10-10T15:24:57.795Z,2.33
2022-10-10T15:27:25.248Z,2.75
2022-10-10T15:29:52.551Z,2.65
2022-10-10T15:32:19.912Z,2.97
2022-10-10T15:34:50.454Z,2.42
2022-10-10T15:37:17.826Z,2.47
2022-10-10T15:39:45.821Z,2.55
2022-10-10T15:42:17.286Z,2.90
2022-10-10T15:44:48.831Z,2.47
2022-10-10T15:47:16.684Z,2.50
2022-10-10T15:49:44.042Z,2.40
2022-10-10T15:52:11.573Z,2.45
2022-10-10T15:54:39.301Z,2.40
2022-10-10T15:57:06.609Z,2.50
2022-10-10T15:59:34.018Z,2.80
2022-10-10T16:02:01.356Z,2.95
2022-10-10T16:04:28.703Z,2.60
2022-10-10T16:09:43.489Z,3.00
2022-10-10T16:12:10.849Z,3.20
2022-10-10T16:14:38.309Z,2.80
2022-10-10T16:17:05.640Z,2.85
2022-10-10T16:19:33.007Z,3.22
2022-10-10T16:22:00.353Z,4.00
2022-10-10T16:24:27.661Z,3.20
2022-10-10T16:26:55.057Z,3.35
2022-10-10T16:29:22.370Z,3.15
2022-10-10T16:31:49.669Z,3.75
2022-10-10T16:34:17.437Z,3.42
2022-10-10T16:36:44.800Z,3.45
2022-10-10T16:39:13.127Z,4.40
2022-10-10T16:41:49.220Z,4.10
2022-10-10T16:44:17.434Z,4.47
2022-10-10T16:46:44.913Z,3.65
2022-10-10T16:49:13.053Z,3.65
2022-10-10T16:51:40.335Z,3.65
2022-10-10T16:54:07.723Z,3.42
2022-10-10T16:56:35.359Z,3.33
2022-10-10T16:59:03.156Z,4.15
2022-10-10T17:01:30.525Z,4.10
2022-10-10T17:03:59.025Z,6.60
2022-10-10T17:06:30.091Z,5.18
2022-10-10T17:09:02.390Z,4.75
2022-10-10T17:11:29.769Z,4.20
2022-10-10T17:13:57.070Z,4.57
2022-10-10T17:19:14.255Z,4.30
2022-10-10T17:21:41.591Z,4.05
2022-10-10T17:24:09.946Z,4.70
2022-10-10T17:26:37.324Z,4.40
2022-10-10T17:29:04.679Z,4.30
2022-10-10T17:31:32.589Z,4.47
2022-10-10T17:33:59.905Z,4.68
2022-10-10T17:36:27.639Z,5.28
2022-10-10T17:39:00.309Z,4.40
2022-10-10T17:41:27.983Z,5.15
2022-10-10T17:43:55.639Z,4.90
2022-10-10T17:46:40.797Z,5.38
2022-10-10T17:49:09.407Z,5.28
2022-10-10T17:51:36.976Z,5.43
2022-10-10T17:54:05.879Z,5.15
2022-10-10T17:56:33.237Z,5.15
2022-10-10T17:59:01.769Z,5.22
2022-10-10T18:01:30.777Z,5.43
2022-10-10T18:03:59.001Z,4.95
2022-10-10T18:06:26.603Z,5.68
2022-10-10T18:08:54.111Z,5.68
2022-10-10T18:11:31.039Z,6.60
2022-10-10T18:14:00.344Z,7.00
2022-10-10T18:16:30.027Z,6.57
2022-10-10T18:18:57.981Z,6.10
2022-10-10T18:21:25.480Z,6.80
2022-10-10T18:23:52.824Z,6.65
2022-10-10T18:26:24.495Z,6.00
2022-10-10T18:28:55.446Z,7.28
2022-10-10T18:31:33.694Z,6.95
2022-10-10T18:34:01.448Z,8.30
2022-10-10T18:36:30.267Z,7.85
2022-10-10T18:38:58.642Z,8.25
2022-10-10T18:41:30.495Z,8.27
2022-10-10T18:43:57.820Z,8.20
2022-10-10T18:46:25.729Z,7.55
2022-10-10T18:48:54.367Z,7.32
2022-10-10T18:51:24.490Z,7.05
2022-10-10T18:54:01.980Z,7.40
2022-10-10T18:56:29.911Z,7.40
2022-10-10T18:58:58.685Z,7.68
2022-10-10T19:01:26.554Z,7.40
2022-10-10T19:03:54.135Z,7.35
2022-10-10T19:06:22.649Z,6.93
2022-10-10T19:08:51.637Z,6.57
2022-10-10T19:11:23.781Z,6.47
2022-10-10T19:13:51.495Z,6.95
2022-10-10T19:16:18.856Z,7.13
2022-10-10T19:18:46.217Z,7.32
2022-10-10T19:21:15.018Z,6.82
2022-10-10T19:23:42.865Z,6.53
2022-10-10T19:26:11.923Z,7.28
2022-10-10T19:28:39.464Z,6.40
2022-10-10T19:31:13.793Z,7.30
2022-10-10T19:33:44.601Z,6.63
2022-10-10T19:36:12.131Z,6.65
2022-10-10T19:38:40.231Z,7.22
2022-10-10T19:41:15.387Z,6.63
2022-10-10T19:43:43.455Z,7.15
2022-10-10T19:46:12.781Z,7.15
2022-10-10T19:48:40.126Z,7.72
2022-10-10T19:51:12.287Z,7.40
2022-10-10T19:53:39.737Z,6.93
2022-10-10T19:56:20.554Z,6.97
2022-10-10T19:58:48.103Z,7.03
2022-10-10T20:01:16.587Z,6.90
2022-10-10T20:03:44.254Z,6.95
2022-10-10T20:06:11.683Z,6.70
2022-10-10T20:08:39.489Z,7.40
2022-10-10T20:11:06.901Z,7.53
2022-10-10T20:13:34.703Z,7.30
2022-10-10T20:16:03.943Z,7.20
2022-10-10T20:18:35.227Z,7.60
2022-10-10T20:21:16.195Z,7.47
2022-10-10T20:23:45.360Z,6.78
2022-10-10T20:26:14.627Z,7.25
2022-10-10T20:28:42.362Z,7.20
2022-10-10T20:31:19.939Z,7.20
2022-10-10T20:33:51.334Z,6.90
2022-10-10T20:36:18.696Z,7.78
2022-10-10T20:38:53.514Z,6.95
2022-10-10T20:41:21.113Z,6.95
2022-10-10T20:43:48.442Z,7.53
2022-10-10T20:46:15.766Z,6.63
2022-10-10T20:48:43.027Z,7.30
2022-10-10T20:51:11.636Z,6.82
2022-10-10T20:53:41.831Z,6.70
2022-10-10T20:56:10.450Z,6.88
2022-10-10T20:58:38.229Z,7.13
2022-10-10T21:01:12.838Z,6.90
2022-10-10T21:03:40.577Z,6.60
2022-10-10T21:06:13.103Z,6.55
2022-10-10T21:08:40.654Z,6.00
2022-10-10T21:11:09.723Z,7.05
2022-10-10T21:13:37.878Z,6.88
2022-10-10T21:16:06.737Z,6.45
2022-10-10T21:18:34.423Z,6.18
2022-10-10T21:21:01.919Z,6.75
2022-10-10T21:23:30.161Z,7.20
2022-10-10T21:25:57.491Z,6.43
2022-10-10T21:28:24.867Z,7.43
2022-10-10T21:30:52.632Z,7.32
2022-10-10T21:33:20.082Z,8.35
2022-10-10T21:35:49.839Z,7.78
2022-10-10T21:38:17.224Z,7.28
2022-10-10T21:40:44.672Z,7.53
2022-10-10T21:43:12.639Z,7.88
2022-10-10T21:45:40.203Z,8.07
2022-10-10T21:48:08.345Z,7.22
2022-10-10T21:50:35.837Z,7.10
2022-10-10T21:53:03.877Z,6.57
2022-10-10T21:55:31.227Z,6.47
2022-10-10T21:57:58.516Z,6.72
2022-10-10T22:00:25.876Z,7.53
2022-10-10T22:02:53.285Z,6.63
2022-10-10T22:05:20.613Z,7.00
2022-10-10T22:07:47.898Z,6.82
2022-10-10T22:10:16.519Z,6.68
2022-10-10T22:12:43.902Z,6.93
2022-10-10T22:15:12.136Z,6.50
2022-10-10T22:17:39.779Z,6.82
2022-10-10T22:20:07.737Z,7.22
2022-10-10T22:22:36.639Z,7.60
2022-10-10T22:25:06.443Z,7.82
2022-10-10T22:27:33.759Z,7.00
2022-10-10T22:30:01.050Z,6.50
2022-10-10T22:32:28.608Z,6.95
2022-10-10T22:34:55.847Z,6.43
2022-10-10T22:37:23.175Z,7.40
2022-10-10T22:39:50.484Z,7.28
2022-10-10T22:42:17.795Z,6.40
2022-10-10T22:44:45.342Z,7.25
2022-10-10T22:47:12.767Z,7.20
2022-10-10T22:49:40.023Z,6.30
2022-10-10T22:52:08.907Z,6.32
2022-10-10T22:54:36.275Z,6.57
2022-10-10T22:57:03.651Z,6.47
2022-10-10T22:59:30.967Z,6.80
2022-10-10T23:01:58.347Z,6.25
2022-10-10T23:04:25.661Z,6.72
2022-10-10T23:06:52.972Z,7.75
2022-10-10T23:09:20.281Z,6.38
2022-10-10T23:11:47.644Z,6.43
2022-10-10T23:14:14.980Z,7.60
2022-10-10T23:16:42.238Z,7.53
2022-10-10T23:19:09.584Z,6.68
2022-10-10T23:21:37.078Z,6.20
2022-10-10T23:24:04.723Z,6.40
2022-10-10T23:26:32.298Z,6.65
2022-10-10T23:28:59.610Z,6.07
2022-10-10T23:31:27.048Z,5.43
2022-10-10T23:33:54.324Z,6.32
2022-10-10T23:36:21.718Z,5.68
2022-10-10T23:38:49.007Z,6.00
2022-10-10T23:41:16.303Z,5.55
2022-10-10T23:43:43.642Z,5.60
2022-10-10T23:46:11.464Z,5.53
2022-10-10T23:48:38.830Z,5.95
2022-10-10T23:51:06.371Z,5.60
2022-10-10T23:53:33.905Z,6.05
2022-10-10T23:56:01.561Z,5.57
2022-10-10T23:58:29.215Z,5.38
